createdAt,value
2023-08-09T00:02:28.162Z,101770.88
2023-08-09T00:05:14.813Z,101773.99
2023-08-09T00:08:02.164Z,101774.63
2023-08-09T00:10:49.128Z,101777.11
2023-08-09T00:13:36.457Z,101777.96
2023-08-09T00:16:23.205Z,101777.23
2023-08-09T00:19:10.827Z,101782.34
2023-08-09T00:21:57.787Z,101781.59
2023-08-09T00:24:45.343Z,101781.51
2023-08-09T00:27:32.655Z,101785.23
2023-08-09T00:30:19.581Z,101787.59
2023-08-09T00:33:06.373Z,101787.95
2023-08-09T00:35:53.606Z,101785.57
2023-08-09T00:38:40.281Z,101787.64
2023-08-09T00:41:27.570Z,101788.98
2023-08-09T00:44:14.816Z,101792.55
2023-08-09T00:47:02.024Z,101797.14
2023-08-09T00:49:49.431Z,101795.09
2023-08-09T00:52:37.626Z,101789.77
2023-08-09T00:55:24.693Z,101791.23
2023-08-09T00:58:11.276Z,101790.36
2023-08-09T01:00:58.514Z,101790.70
2023-08-09T01:03:45.475Z,101792.64
2023-08-09T01:06:53.185Z,101796.85
2023-08-09T01:10:00.332Z,101790.59
2023-08-09T01:12:54.079Z,101789.42
2023-08-09T01:15:43.411Z,101790.24
2023-08-09T01:18:31.859Z,101792.61
2023-08-09T01:21:21.009Z,101795.56
2023-08-09T01:24:09.407Z,101797.63
2023-08-09T01:26:56.968Z,101793.92
2023-08-09T01:29:44.477Z,101790.42
2023-08-09T01:32:32.446Z,101792.13
2023-08-09T01:35:19.563Z,101790.09
2023-08-09T01:38:18.247Z,101793.15
2023-08-09T01:41:07.656Z,101797.14
2023-08-09T01:43:56.877Z,101800.25
2023-08-09T01:46:45.698Z,101802.06
2023-08-09T01:49:33.113Z,101801.75
2023-08-09T01:52:19.930Z,101804.46
2023-08-09T01:55:07.070Z,101805.40
2023-08-09T01:57:57.199Z,101802.80
2023-08-09T02:00:44.746Z,101800.25
2023-08-09T02:03:31.899Z,101798.91
2023-08-09T02:06:18.575Z,101799.69
2023-08-09T02:09:08.076Z,101806.79
2023-08-09T02:11:54.810Z,101811.02
2023-08-09T02:14:41.698Z,101808.11
2023-08-09T02:17:28.778Z,101805.39
2023-08-09T02:20:18.353Z,101806.23
2023-08-09T02:23:06.459Z,101806.77
2023-08-09T02:25:54.438Z,101805.70
2023-08-09T02:28:41.292Z,101808.53
2023-08-09T02:31:29.154Z,101808.73
2023-08-09T02:34:15.986Z,101812.60
2023-08-09T02:37:03.871Z,101812.66
2023-08-09T02:39:51.278Z,101811.15
2023-08-09T02:42:38.851Z,101809.90
2023-08-09T02:45:25.672Z,101813.79
2023-08-09T02:48:13.211Z,101814.98
2023-08-09T02:51:00.649Z,101817.94
2023-08-09T02:54:05.162Z,101813.98
2023-08-09T02:56:52.209Z,101816.30
2023-08-09T02:59:38.911Z,101819.11
2023-08-09T03:02:26.610Z,101820.70
2023-08-09T03:05:14.779Z,101820.27
2023-08-09T03:08:03.443Z,101818.07
2023-08-09T03:10:50.427Z,101817.46
2023-08-09T03:13:37.549Z,101819.45
2023-08-09T03:16:25.121Z,101821.79
2023-08-09T03:19:12.756Z,101823.88
2023-08-09T03:22:00.300Z,101828.16
2023-08-09T03:24:47.230Z,101829.40
2023-08-09T03:27:34.476Z,101832.54
2023-08-09T03:30:22.543Z,101836.94
2023-08-09T03:33:10.035Z,101840.29
2023-08-09T03:35:57.848Z,101846.09
2023-08-09T03:38:45.117Z,101846.04
2023-08-09T03:41:31.938Z,101850.12
2023-08-09T03:44:18.926Z,101852.05
2023-08-09T03:47:06.089Z,101857.93
2023-08-09T03:49:53.041Z,101855.86
2023-08-09T03:52:39.872Z,101850.27
2023-08-09T03:55:27.213Z,101853.92
2023-08-09T03:58:14.180Z,101848.64
2023-08-09T04:01:01.002Z,101853.05
2023-08-09T04:03:48.554Z,101854.48
2023-08-09T04:06:35.693Z,101854.20
2023-08-09T04:09:22.642Z,101857.26
2023-08-09T04:12:09.688Z,101858.70
2023-08-09T04:14:56.458Z,101859.35
2023-08-09T04:17:43.665Z,101860.17
2023-08-09T04:20:32.848Z,101858.99
2023-08-09T04:23:19.798Z,101862.43
2023-08-09T04:26:06.924Z,101864.98
2023-08-09T04:28:53.936Z,101864.13
2023-08-09T04:31:41.042Z,101864.88
2023-08-09T04:34:28.263Z,101867.94
2023-08-09T04:37:16.726Z,101867.45
2023-08-09T04:40:03.832Z,101869.27
2023-08-09T04:42:51.226Z,101867.77
2023-08-09T04:45:37.966Z,101870.17
2023-08-09T04:48:24.950Z,101872.90
2023-08-09T04:51:12.023Z,101873.82
2023-08-09T04:53:59.597Z,101876.34
2023-08-09T04:56:56.994Z,101878.18
2023-08-09T04:59:44.269Z,101879.68
2023-08-09T05:02:37.170Z,101880.63
2023-08-09T05:05:24.697Z,101877.85
2023-08-09T05:08:11.741Z,101878.38
2023-08-09T05:10:58.976Z,101877.08
2023-08-09T05:13:46.707Z,101881.25
2023-08-09T05:16:33.727Z,101883.73
2023-08-09T05:19:21.395Z,101885.50
2023-08-09T05:22:08.894Z,101887.94
2023-08-09T05:24:58.911Z,101891.46
2023-08-09T05:28:02.818Z,101892.09
2023-08-09T05:30:50.017Z,101896.19
2023-08-09T05:33:36.908Z,101894.59
2023-08-09T05:36:24.583Z,101900.50
2023-08-09T05:39:11.260Z,101899.48
2023-08-09T05:41:57.839Z,101899.84
2023-08-09T05:44:44.808Z,101902.21
2023-08-09T05:47:32.642Z,101904.10
2023-08-09T05:50:20.431Z,101910.00
2023-08-09T05:53:11.078Z,101909.71
2023-08-09T05:55:59.319Z,101911.23
2023-08-09T05:58:46.555Z,101912.41
2023-08-09T06:01:35.046Z,101909.83
2023-08-09T06:07:50.618Z,101908.54
2023-08-09T06:14:07.297Z,101911.62
2023-08-09T06:16:54.671Z,101906.58
2023-08-09T06:19:42.260Z,101907.02
2023-08-09T06:22:30.071Z,101911.98
2023-08-09T06:25:22.850Z,101913.08
2023-08-09T06:28:10.209Z,101913.38
2023-08-09T06:30:58.292Z,101914.73
2023-08-09T06:33:48.569Z,101908.14
2023-08-09T06:36:36.183Z,101916.03
2023-08-09T06:39:25.551Z,101913.68
2023-08-09T06:42:15.488Z,101914.29
2023-08-09T06:45:05.257Z,101914.50
2023-08-09T06:47:52.467Z,101914.95
2023-08-09T06:50:39.734Z,101912.77
2023-08-09T06:53:29.505Z,101917.48
2023-08-09T06:56:17.033Z,101914.55
2023-08-09T06:59:04.487Z,101915.77
2023-08-09T07:01:51.766Z,101918.66
2023-08-09T07:04:54.380Z,101914.20
2023-08-09T07:07:45.276Z,101911.71
2023-08-09T07:14:46.799Z,101909.23
2023-08-09T07:17:38.773Z,101911.38
2023-08-09T07:20:26.958Z,101913.05
2023-08-09T07:23:29.626Z,101912.00
2023-08-09T07:26:30.678Z,101913.89
2023-08-09T07:29:17.951Z,101916.38
2023-08-09T07:32:11.524Z,101915.27
2023-08-09T07:34:58.760Z,101917.79
2023-08-09T07:38:08.212Z,101918.30
2023-08-09T07:40:55.699Z,101913.52
2023-08-09T07:43:43.122Z,101914.80
2023-08-09T07:46:32.384Z,101915.55
2023-08-09T07:49:21.199Z,101914.91
2023-08-09T07:52:11.120Z,101908.94
2023-08-09T07:55:42.486Z,101910.63
2023-08-09T08:03:30.947Z,101908.83
2023-08-09T08:06:19.144Z,101907.23
2023-08-09T08:09:06.209Z,101912.11
2023-08-09T08:12:13.517Z,101912.22
2023-08-09T08:15:10.132Z,101909.42
2023-08-09T08:18:35.636Z,101904.65
2023-08-09T08:21:34.619Z,101897.96
2023-08-09T08:24:25.467Z,101897.84
2023-08-09T08:27:14.378Z,101894.08
2023-08-09T08:30:09.581Z,101890.90
2023-08-09T08:32:56.765Z,101886.73
2023-08-09T08:35:55.585Z,101893.63
2023-08-09T08:39:25.897Z,101890.05
2023-08-09T08:42:50.519Z,101885.52
2023-08-09T08:50:32.947Z,101881.02
2023-08-09T08:53:20.754Z,101880.80
2023-08-09T08:56:12.375Z,101878.09
2023-08-09T08:59:00.517Z,101872.84
2023-08-09T09:01:49.265Z,101870.59
2023-08-09T09:04:37.910Z,101871.73
2023-08-09T09:07:25.109Z,101867.66
2023-08-09T09:10:13.644Z,101863.70
2023-08-09T09:13:03.994Z,101862.92
2023-08-09T09:15:51.262Z,101856.39
2023-08-09T09:18:44.545Z,101853.45
2023-08-09T09:21:36.536Z,101854.59
2023-08-09T09:24:24.072Z,101845.94
2023-08-09T09:27:12.523Z,101842.42
2023-08-09T09:30:13.290Z,101837.95
2023-08-09T09:33:07.118Z,101833.60
2023-08-09T09:35:54.726Z,101824.98
2023-08-09T09:38:44.724Z,101828.60
2023-08-09T09:41:31.829Z,101830.77
2023-08-09T09:44:21.661Z,101830.92
2023-08-09T09:47:09.380Z,101825.99
2023-08-09T09:49:56.493Z,101831.29
2023-08-09T09:52:45.357Z,101827.22
2023-08-09T09:55:34.537Z,101822.67
2023-08-09T09:58:21.874Z,101823.70
2023-08-09T10:01:13.950Z,101822.56
2023-08-09T10:04:11.799Z,101817.77
2023-08-09T10:06:58.968Z,101810.36
2023-08-09T10:09:49.295Z,101812.85
2023-08-09T10:12:37.909Z,101813.87
2023-08-09T10:15:33.509Z,101807.30
2023-08-09T10:18:24.484Z,101811.61
2023-08-09T10:21:15.753Z,101813.52
2023-08-09T10:24:13.699Z,101806.84
2023-08-09T10:27:07.747Z,101806.20
2023-08-09T10:29:59.083Z,101799.63
2023-08-09T10:32:54.894Z,101796.56
2023-08-09T10:35:55.179Z,101791.84
2023-08-09T10:38:49.257Z,101791.70
2023-08-09T10:41:38.212Z,101790.84
2023-08-09T10:44:34.697Z,101790.66
2023-08-09T10:47:28.297Z,101784.02
2023-08-09T10:50:16.228Z,101781.74
2023-08-09T10:53:05.893Z,101781.11
2023-08-09T10:55:57.022Z,101776.23
2023-08-09T10:58:45.579Z,101773.68
2023-08-09T11:01:33.928Z,101777.58
2023-08-09T11:04:22.454Z,101774.73
2023-08-09T11:07:22.695Z,101776.80
2023-08-09T11:10:09.761Z,101772.52
2023-08-09T11:12:56.879Z,101768.45
2023-08-09T11:15:47.006Z,101764.38
2023-08-09T11:18:34.116Z,101764.44
2023-08-09T11:21:25.152Z,101763.79
2023-08-09T11:24:15.203Z,101756.92
2023-08-09T11:27:02.253Z,101753.88
2023-08-09T11:29:49.367Z,101745.27
2023-08-09T11:32:38.869Z,101747.98
2023-08-09T11:35:31.784Z,101750.23
2023-08-09T11:38:19.130Z,101750.50
2023-08-09T11:41:06.892Z,101737.95
2023-08-09T11:43:55.877Z,101735.92
2023-08-09T11:46:47.350Z,101729.87
2023-08-09T11:49:35.109Z,101728.95
2023-08-09T11:52:24.553Z,101727.42
2023-08-09T11:55:11.974Z,101729.77
2023-08-09T11:58:06.981Z,101723.77
2023-08-09T12:00:54.655Z,101721.17
2023-08-09T12:03:42.609Z,101714.39
2023-08-09T12:06:41.839Z,101707.38
2023-08-09T12:09:38.173Z,101703.23
2023-08-09T12:12:39.582Z,101706.92
2023-08-09T12:15:28.262Z,101700.85
2023-08-09T12:18:15.632Z,101701.06
2023-08-09T12:21:03.755Z,101699.99
2023-08-09T12:23:50.516Z,101698.65
2023-08-09T12:26:38.948Z,101702.39
2023-08-09T12:29:27.327Z,101699.23
2023-08-09T12:32:15.271Z,101701.73
2023-08-09T12:35:03.531Z,101698.15
2023-08-09T12:37:51.137Z,101698.16
2023-08-09T12:40:39.660Z,101697.02
2023-08-09T12:43:27.287Z,101697.91
2023-08-09T12:46:14.293Z,101694.96
2023-08-09T12:49:01.171Z,101697.30
2023-08-09T12:51:51.204Z,101688.66
2023-08-09T12:54:40.327Z,101687.48
2023-08-09T12:57:27.729Z,101688.63
2023-08-09T13:00:17.220Z,101687.25
2023-08-09T13:03:07.469Z,101684.55
2023-08-09T13:06:12.814Z,101686.70
2023-08-09T13:09:14.195Z,101683.13
2023-08-09T13:12:10.250Z,101686.36
2023-08-09T13:14:57.766Z,101687.23
2023-08-09T13:17:45.505Z,101688.09
2023-08-09T13:20:32.364Z,101689.70
2023-08-09T13:26:40.116Z,101686.02
2023-08-09T13:29:27.274Z,101684.48
2023-08-09T13:32:14.697Z,101690.67
2023-08-09T13:35:01.638Z,101688.34
2023-08-09T13:37:48.860Z,101684.52
2023-08-09T13:40:39.316Z,101689.16
2023-08-09T13:43:27.743Z,101690.73
2023-08-09T13:46:15.070Z,101689.19
2023-08-09T13:49:02.710Z,101689.89
2023-08-09T13:51:49.883Z,101689.87
2023-08-09T13:54:37.213Z,101692.39
2023-08-09T13:57:24.582Z,101692.48
2023-08-09T14:00:15.412Z,101694.61
2023-08-09T14:03:02.626Z,101693.20
2023-08-09T14:05:49.588Z,101696.70
2023-08-09T14:08:36.866Z,101696.40
2023-08-09T14:11:23.646Z,101694.64
2023-08-09T14:14:10.931Z,101694.59
2023-08-09T14:16:58.958Z,101695.84
2023-08-09T14:19:46.453Z,101693.20
2023-08-09T14:22:33.253Z,101692.36
2023-08-09T14:25:24.636Z,101693.61
2023-08-09T14:28:11.608Z,101692.82
2023-08-09T14:30:59.005Z,101689.82
2023-08-09T14:33:45.926Z,101688.56
2023-08-09T14:36:32.960Z,101686.93
2023-08-09T14:39:21.743Z,101692.44
2023-08-09T14:42:09.297Z,101685.86
2023-08-09T14:44:58.584Z,101680.80
2023-08-09T14:47:46.100Z,101675.95
2023-08-09T14:50:33.261Z,101676.90
2023-08-09T14:53:20.493Z,101672.75
2023-08-09T14:56:07.388Z,101676.81
2023-08-09T15:02:57.393Z,101675.66
2023-08-09T15:09:45.854Z,101681.91
2023-08-09T15:15:58.919Z,101674.37
2023-08-09T15:19:19.428Z,101671.41
2023-08-09T15:31:00.993Z,101681.66
2023-08-09T15:36:44.515Z,101682.40
2023-08-09T15:39:33.218Z,101682.00
2023-08-09T15:42:20.304Z,101685.71
2023-08-09T15:45:08.584Z,101688.02
2023-08-09T15:47:55.659Z,101687.05
2023-08-09T15:50:43.602Z,101683.11
2023-08-09T15:53:31.285Z,101683.55
2023-08-09T15:56:18.249Z,101682.30
2023-08-09T15:59:07.321Z,101684.16
2023-08-09T16:01:55.672Z,101684.27
2023-08-09T16:04:43.599Z,101684.91
2023-08-09T16:21:28.388Z,101679.00
2023-08-09T16:24:23.976Z,101684.80
2023-08-09T16:31:23.105Z,101686.88
2023-08-09T16:38:23.427Z,101684.65
2023-08-09T16:41:34.828Z,101690.05
2023-08-09T16:45:05.276Z,101688.61
2023-08-09T16:48:19.024Z,101691.13
2023-08-09T16:54:48.045Z,101701.23
2023-08-09T16:57:35.361Z,101704.60
2023-08-09T17:00:22.622Z,101704.23
2023-08-09T17:07:14.897Z,101706.17
2023-08-09T17:10:40.086Z,101710.63
2023-08-09T17:25:11.523Z,101713.08
2023-08-09T17:28:51.386Z,101713.23
2023-08-09T17:35:27.734Z,101712.54
2023-08-09T17:38:14.645Z,101714.34
2023-08-09T17:41:01.670Z,101715.10
2023-08-09T17:43:49.020Z,101717.61
2023-08-09T17:46:42.101Z,101727.08
2023-08-09T17:50:24.742Z,101725.80
2023-08-09T17:53:35.584Z,101728.79
2023-08-09T17:57:07.124Z,101737.31
2023-08-09T18:00:22.193Z,101742.06
2023-08-09T18:07:15.104Z,101740.19
2023-08-09T18:10:25.872Z,101739.69
2023-08-09T18:13:12.532Z,101740.12
2023-08-09T18:15:59.700Z,101742.66
2023-08-09T18:18:46.541Z,101742.39
2023-08-09T18:21:34.950Z,101747.59
2023-08-09T18:24:22.012Z,101745.61
2023-08-09T18:27:09.919Z,101744.59
2023-08-09T18:29:56.755Z,101742.18
2023-08-09T18:32:54.961Z,101741.45
2023-08-09T18:43:19.052Z,101744.23
2023-08-09T18:46:25.164Z,101741.48
2023-08-09T18:56:24.434Z,101734.04
2023-08-09T18:59:11.607Z,101734.25
2023-08-09T19:01:58.279Z,101730.95
2023-08-09T19:04:45.175Z,101732.20
2023-08-09T19:07:34.382Z,101729.08
2023-08-09T19:10:21.243Z,101727.98
2023-08-09T19:13:08.581Z,101730.85
2023-08-09T19:15:55.849Z,101727.57
2023-08-09T19:18:43.213Z,101726.79
2023-08-09T19:21:29.999Z,101729.54
2023-08-09T19:24:17.152Z,101728.14
2023-08-09T19:27:04.598Z,101730.80
2023-08-09T19:29:51.890Z,101726.14
2023-08-09T19:32:39.621Z,101722.75
2023-08-09T19:35:26.805Z,101719.36
2023-08-09T19:38:13.846Z,101721.71
2023-08-09T19:41:01.227Z,101721.21
2023-08-09T19:43:48.382Z,101722.17
2023-08-09T19:46:35.503Z,101721.65
2023-08-09T19:49:35.398Z,101721.36
2023-08-09T19:52:22.294Z,101719.28
2023-08-09T19:55:09.971Z,101716.14
2023-08-09T19:57:57.651Z,101714.67
2023-08-09T20:00:44.994Z,101712.59
2023-08-09T20:03:32.872Z,101718.55
2023-08-09T20:06:21.344Z,101719.41
2023-08-09T20:09:08.438Z,101720.36
2023-08-09T20:11:55.376Z,101720.15
2023-08-09T20:14:42.676Z,101723.73
2023-08-09T20:17:29.874Z,101722.95
2023-08-09T20:20:17.139Z,101719.27
2023-08-09T20:23:04.585Z,101716.56
2023-08-09T20:25:52.538Z,101712.07
2023-08-09T20:28:39.669Z,101705.69
2023-08-09T20:31:26.692Z,101706.35
2023-08-09T20:34:13.278Z,101707.39
2023-08-09T20:37:00.591Z,101702.15
2023-08-09T20:39:47.601Z,101709.69
2023-08-09T20:42:34.551Z,101710.55
2023-08-09T20:45:22.182Z,101713.81
2023-08-09T20:48:09.232Z,101712.80
2023-08-09T20:51:00.658Z,101714.64
2023-08-09T20:53:48.042Z,101715.88
2023-08-09T20:56:34.923Z,101714.84
2023-08-09T20:59:22.055Z,101713.58
2023-08-09T21:02:10.077Z,101714.84
2023-08-09T21:04:56.927Z,101713.77
2023-08-09T21:07:44.006Z,101714.27
2023-08-09T21:10:31.162Z,101714.29
2023-08-09T21:13:18.178Z,101714.34
2023-08-09T21:16:05.701Z,101717.09
2023-08-09T21:18:52.676Z,101717.18
2023-08-09T21:21:39.798Z,101717.80
2023-08-09T21:24:30.035Z,101714.89
2023-08-09T21:27:17.458Z,101714.30
2023-08-09T21:30:05.576Z,101714.65
2023-08-09T21:32:52.495Z,101715.66
2023-08-09T21:35:42.987Z,101718.77
2023-08-09T21:38:30.411Z,101715.86
2023-08-09T21:41:18.073Z,101717.51
2023-08-09T21:44:05.447Z,101718.34
2023-08-09T21:46:52.677Z,101709.51
2023-08-09T21:49:40.283Z,101708.36
2023-08-09T21:52:28.180Z,101706.33
2023-08-09T21:55:15.771Z,101709.29
2023-08-09T21:58:02.530Z,101707.51
2023-08-09T22:00:49.499Z,101706.06
2023-08-09T22:03:36.477Z,101707.77
2023-08-09T22:06:23.778Z,101707.64
2023-08-09T22:09:12.123Z,101699.65
2023-08-09T22:11:59.471Z,101696.50
2023-08-09T22:14:46.554Z,101694.11
2023-08-09T22:17:33.452Z,101692.25
2023-08-09T22:20:21.323Z,101690.29
2023-08-09T22:23:08.542Z,101694.20
2023-08-09T22:25:55.498Z,101689.51
2023-08-09T22:28:43.181Z,101688.47
2023-08-09T22:31:33.589Z,101685.52
2023-08-09T22:34:21.500Z,101683.21
2023-08-09T22:37:08.249Z,101683.20
2023-08-09T22:39:55.192Z,101681.16
2023-08-09T22:42:42.308Z,101678.59
2023-08-09T22:45:31.801Z,101680.98
2023-08-09T22:48:18.456Z,101674.20
2023-08-09T22:51:06.186Z,101664.00
2023-08-09T22:53:53.530Z,101659.79
2023-08-09T22:56:40.599Z,101662.02
2023-08-09T22:59:27.248Z,101659.66
2023-08-09T23:02:14.719Z,101655.94
2023-08-09T23:05:01.613Z,101650.83
2023-08-09T23:07:48.886Z,101648.10
2023-08-09T23:10:36.968Z,101646.78
2023-08-09T23:13:27.285Z,101646.48
2023-08-09T23:16:15.267Z,101649.77
2023-08-09T23:19:03.310Z,101647.98
2023-08-09T23:21:50.964Z,101644.75
2023-08-09T23:24:38.390Z,101638.77
2023-08-09T23:27:25.680Z,101637.90
2023-08-09T23:30:13.504Z,101641.35
2023-08-09T23:33:04.170Z,101638.98
2023-08-09T23:35:51.672Z,101638.23
2023-08-09T23:38:38.685Z,101642.31
2023-08-09T23:41:25.457Z,101649.48
2023-08-09T23:44:12.859Z,101650.52
2023-08-09T23:46:59.775Z,101645.98
2023-08-09T23:49:47.617Z,101641.00
2023-08-09T23:52:34.728Z,101640.34
2023-08-09T23:55:21.875Z,101638.89
2023-08-09T23:58:09.656Z,101633.31
